createdAt,value
2022-08-26T00:02:12.600Z,100433.16
2022-08-26T00:04:41.109Z,100429.19
2022-08-26T00:07:09.153Z,100428.75
2022-08-26T00:09:40.248Z,100427.06
2022-08-26T00:12:09.492Z,100421.94
2022-08-26T00:14:40.573Z,100422.06
2022-08-26T00:17:08.861Z,100425.25
2022-08-26T00:19:37.391Z,100424.78
2022-08-26T00:22:05.900Z,100433.75
2022-08-26T00:24:33.822Z,100427.16
2022-08-26T00:27:01.740Z,100423.84
2022-08-26T00:29:32.003Z,100426.38
2022-08-26T00:32:04.111Z,100427.50
2022-08-26T00:34:32.075Z,100425.91
2022-08-26T00:36:59.731Z,100427.13
2022-08-26T00:39:28.023Z,100432.59
2022-08-26T00:41:55.933Z,100428.41
2022-08-26T00:44:23.951Z,100425.78
2022-08-26T00:46:56.711Z,100427.66
2022-08-26T00:49:36.002Z,100422.72
2022-08-26T00:52:09.885Z,100435.19
2022-08-26T00:54:46.937Z,100434.50
2022-08-26T00:57:18.535Z,100433.88
2022-08-26T00:59:51.397Z,100434.91
2022-08-26T01:02:20.019Z,100432.25
2022-08-26T01:04:56.342Z,100435.16
2022-08-26T01:07:27.441Z,100431.75
2022-08-26T01:09:56.389Z,100427.59
2022-08-26T01:12:27.734Z,100433.06
2022-08-26T01:14:56.163Z,100431.34
2022-08-26T01:17:23.975Z,100428.13
2022-08-26T01:19:58.617Z,100437.13
2022-08-26T01:22:38.489Z,100440.72
2022-08-26T01:25:06.876Z,100431.25
2022-08-26T01:27:35.411Z,100442.50
2022-08-26T01:30:04.789Z,100439.28
2022-08-26T01:32:33.961Z,100443.69
2022-08-26T01:35:02.217Z,100439.09
2022-08-26T01:37:34.860Z,100447.38
2022-08-26T01:40:06.046Z,100447.53
2022-08-26T01:42:34.925Z,100435.28
2022-08-26T01:45:18.362Z,100434.63
2022-08-26T01:47:57.037Z,100433.09
2022-08-26T01:50:36.253Z,100427.97
2022-08-26T01:53:09.521Z,100436.16
2022-08-26T01:55:43.022Z,100431.72
2022-08-26T01:58:26.562Z,100426.63
2022-08-26T02:00:55.089Z,100424.75
2022-08-26T02:03:24.335Z,100419.81
2022-08-26T02:06:05.141Z,100427.13
2022-08-26T02:08:47.635Z,100427.13
2022-08-26T02:11:15.862Z,100425.25
2022-08-26T02:13:51.862Z,100426.97
2022-08-26T02:16:26.959Z,100428.06
2022-08-26T02:18:56.104Z,100427.81
2022-08-26T02:21:24.990Z,100426.78
2022-08-26T02:23:52.945Z,100428.84
2022-08-26T02:26:26.914Z,100428.16
2022-08-26T02:29:09.777Z,100429.16
2022-08-26T02:31:37.755Z,100429.00
2022-08-26T02:34:15.674Z,100425.59
2022-08-26T02:36:44.326Z,100427.63
2022-08-26T02:39:13.647Z,100422.44
2022-08-26T02:41:45.496Z,100422.34
2022-08-26T02:44:13.697Z,100424.91
2022-08-26T02:46:41.565Z,100422.53
2022-08-26T02:49:16.287Z,100420.97
2022-08-26T02:51:45.717Z,100419.13
2022-08-26T02:54:13.952Z,100418.53
2022-08-26T02:56:42.252Z,100419.47
2022-08-26T02:59:12.656Z,100419.47
2022-08-26T03:01:40.933Z,100414.53
2022-08-26T03:04:12.248Z,100428.50
2022-08-26T03:06:40.694Z,100424.16
2022-08-26T03:09:10.103Z,100425.94
2022-08-26T03:11:47.256Z,100418.63
2022-08-26T03:14:15.196Z,100419.66
2022-08-26T03:16:43.655Z,100417.19
2022-08-26T03:19:17.663Z,100418.34
2022-08-26T03:21:47.457Z,100421.84
2022-08-26T03:24:15.774Z,100414.53
2022-08-26T03:26:52.400Z,100424.25
2022-08-26T03:29:40.564Z,100414.53
2022-08-26T03:32:09.656Z,100419.28
2022-08-26T03:34:38.749Z,100414.94
2022-08-26T03:37:06.696Z,100424.22
2022-08-26T03:39:35.081Z,100422.94
2022-08-26T03:42:02.755Z,100423.03
2022-08-26T03:44:30.494Z,100422.63
2022-08-26T03:46:58.571Z,100418.28
2022-08-26T03:49:26.464Z,100423.63
2022-08-26T03:51:56.822Z,100421.84
2022-08-26T03:54:24.762Z,100420.66
2022-08-26T03:56:52.461Z,100423.38
2022-08-26T03:59:20.975Z,100419.13
2022-08-26T04:01:49.040Z,100413.84
2022-08-26T04:04:17.022Z,100414.69
2022-08-26T04:06:45.284Z,100411.63
2022-08-26T04:09:18.037Z,100410.34
2022-08-26T04:11:47.501Z,100404.81
2022-08-26T04:14:21.705Z,100409.91
2022-08-26T04:16:50.342Z,100400.84
2022-08-26T04:19:20.017Z,100401.25
2022-08-26T04:21:51.098Z,100400.22
2022-08-26T04:24:20.051Z,100398.13
2022-08-26T04:26:49.033Z,100393.31
2022-08-26T04:29:20.139Z,100405.91
2022-08-26T04:31:48.335Z,100408.88
2022-08-26T04:34:17.535Z,100412.59
2022-08-26T04:36:45.496Z,100418.38
2022-08-26T04:39:16.743Z,100418.66
2022-08-26T04:41:47.826Z,100414.91
2022-08-26T04:44:16.708Z,100417.88
2022-08-26T04:46:45.351Z,100429.22
2022-08-26T04:49:14.078Z,100427.38
2022-08-26T04:51:41.670Z,100424.97
2022-08-26T04:54:14.078Z,100427.03
2022-08-26T04:56:47.277Z,100431.00
2022-08-26T04:59:18.241Z,100419.53
2022-08-26T05:01:48.871Z,100422.38
2022-08-26T05:04:19.894Z,100421.78
2022-08-26T05:06:50.090Z,100431.56
2022-08-26T05:09:18.635Z,100426.28
2022-08-26T05:11:48.504Z,100431.59
2022-08-26T05:14:23.293Z,100428.63
2022-08-26T05:16:52.089Z,100428.53
2022-08-26T05:19:19.796Z,100431.00
2022-08-26T05:21:49.569Z,100428.22
2022-08-26T05:24:18.231Z,100429.88
2022-08-26T05:26:47.198Z,100430.84
2022-08-26T05:29:16.771Z,100432.16
2022-08-26T05:31:44.843Z,100437.47
2022-08-26T05:34:12.893Z,100431.94
2022-08-26T05:36:41.235Z,100435.31
2022-08-26T05:39:10.357Z,100439.06
2022-08-26T05:41:41.027Z,100440.88
2022-08-26T05:44:12.969Z,100437.09
2022-08-26T05:46:43.988Z,100432.78
2022-08-26T05:49:15.891Z,100438.88
2022-08-26T05:51:47.507Z,100442.03
2022-08-26T05:54:21.949Z,100441.72
2022-08-26T05:56:51.628Z,100447.34
2022-08-26T05:59:24.275Z,100446.78
2022-08-26T06:01:53.423Z,100451.41
2022-08-26T06:04:24.842Z,100443.88
2022-08-26T06:06:55.085Z,100445.34
2022-08-26T06:09:23.086Z,100442.91
2022-08-26T06:11:51.503Z,100440.72
2022-08-26T06:14:19.414Z,100435.88
2022-08-26T06:16:47.881Z,100432.72
2022-08-26T06:19:15.702Z,100439.47
2022-08-26T06:21:47.545Z,100438.47
2022-08-26T06:24:41.198Z,100445.06
2022-08-26T06:27:13.462Z,100438.88
2022-08-26T06:29:41.873Z,100443.72
2022-08-26T06:32:09.726Z,100445.63
2022-08-26T06:34:37.567Z,100445.06
2022-08-26T06:37:06.513Z,100444.31
2022-08-26T06:39:34.613Z,100454.78
2022-08-26T06:42:03.378Z,100453.75
2022-08-26T06:44:35.057Z,100452.59
2022-08-26T06:47:02.678Z,100454.13
2022-08-26T06:49:30.454Z,100457.84
2022-08-26T06:51:58.911Z,100460.00
2022-08-26T06:54:29.872Z,100464.41
2022-08-26T06:56:58.016Z,100458.50
2022-08-26T06:59:26.361Z,100460.91
2022-08-26T07:01:54.772Z,100464.47
2022-08-26T07:04:24.497Z,100455.69
2022-08-26T07:06:53.853Z,100452.81
2022-08-26T07:09:24.559Z,100464.38
2022-08-26T07:11:53.262Z,100461.03
2022-08-26T07:14:22.041Z,100466.09
2022-08-26T07:16:50.965Z,100463.00
2022-08-26T07:19:29.825Z,100456.50
2022-08-26T07:22:00.106Z,100450.91
2022-08-26T07:24:29.012Z,100444.13
2022-08-26T07:27:05.622Z,100458.75
2022-08-26T07:29:34.643Z,100456.16
2022-08-26T07:32:03.369Z,100450.59
2022-08-26T07:34:34.134Z,100455.34
2022-08-26T07:37:02.478Z,100454.94
2022-08-26T07:39:31.497Z,100447.06
2022-08-26T07:42:01.783Z,100452.38
2022-08-26T07:44:37.031Z,100452.41
2022-08-26T07:47:10.415Z,100452.09
2022-08-26T07:49:57.339Z,100452.88
2022-08-26T07:52:28.367Z,100466.97
2022-08-26T07:54:58.664Z,100447.31
2022-08-26T07:57:28.232Z,100457.91
2022-08-26T07:59:56.846Z,100450.94
2022-08-26T08:02:25.528Z,100450.13
2022-08-26T08:04:54.679Z,100442.97
2022-08-26T08:07:25.770Z,100447.94
2022-08-26T08:10:11.323Z,100443.53
2022-08-26T08:12:40.331Z,100438.56
2022-08-26T08:15:10.029Z,100440.66
2022-08-26T08:17:37.651Z,100440.34
2022-08-26T08:20:07.583Z,100441.34
2022-08-26T08:22:35.926Z,100435.47
2022-08-26T08:25:06.345Z,100425.38
2022-08-26T08:27:38.499Z,100425.56
2022-08-26T08:30:08.596Z,100424.69
2022-08-26T08:32:40.374Z,100430.09
2022-08-26T08:35:10.961Z,100425.69
2022-08-26T08:37:40.373Z,100422.56
2022-08-26T08:40:10.120Z,100416.00
2022-08-26T08:42:44.329Z,100415.16
2022-08-26T08:45:24.177Z,100418.75
2022-08-26T08:47:56.817Z,100417.91
2022-08-26T08:50:30.784Z,100412.38
2022-08-26T08:53:15.141Z,100408.34
2022-08-26T08:56:39.148Z,100401.19
2022-08-26T08:59:17.119Z,100398.97
2022-08-26T09:02:08.530Z,100396.97
2022-08-26T09:04:38.278Z,100405.88
2022-08-26T09:07:10.505Z,100396.72
2022-08-26T09:09:42.044Z,100399.19
2022-08-26T09:12:17.023Z,100398.47
2022-08-26T09:14:47.950Z,100404.72
2022-08-26T09:17:31.733Z,100394.69
2022-08-26T09:20:26.316Z,100389.72
2022-08-26T09:22:56.391Z,100389.50
2022-08-26T09:25:24.173Z,100384.25
2022-08-26T09:27:54.301Z,100379.84
2022-08-26T09:30:33.199Z,100380.84
2022-08-26T09:33:15.729Z,100384.72
2022-08-26T09:35:48.803Z,100375.19
2022-08-26T09:38:26.739Z,100380.28
2022-08-26T09:41:08.320Z,100370.38
2022-08-26T09:43:36.999Z,100370.41
2022-08-26T09:46:18.652Z,100369.88
2022-08-26T09:48:46.588Z,100356.06
2022-08-26T09:51:26.462Z,100364.31
2022-08-26T09:54:03.084Z,100349.97
2022-08-26T09:56:36.961Z,100353.06
2022-08-26T09:59:11.160Z,100352.16
2022-08-26T10:01:44.890Z,100346.44
2022-08-26T10:04:20.713Z,100344.09
2022-08-26T10:07:04.173Z,100347.41
2022-08-26T10:09:43.379Z,100351.16
2022-08-26T10:12:17.422Z,100354.91
2022-08-26T10:14:52.005Z,100347.09
2022-08-26T10:17:39.263Z,100344.56
2022-08-26T10:20:36.172Z,100347.56
2022-08-26T10:23:04.458Z,100339.06
2022-08-26T10:25:40.800Z,100334.84
2022-08-26T10:28:20.538Z,100333.00
2022-08-26T10:30:56.958Z,100332.34
2022-08-26T10:33:25.646Z,100330.16
2022-08-26T10:35:58.432Z,100326.50
2022-08-26T10:38:34.274Z,100321.53
2022-08-26T10:41:24.148Z,100327.81
2022-08-26T10:44:03.499Z,100329.50
2022-08-26T10:46:52.648Z,100326.13
2022-08-26T10:49:20.556Z,100316.97
2022-08-26T10:52:15.155Z,100320.72
2022-08-26T10:54:50.453Z,100313.19
2022-08-26T10:57:49.176Z,100316.53
2022-08-26T11:00:41.168Z,100314.81
2022-08-26T11:03:34.528Z,100311.16
2022-08-26T11:06:25.280Z,100304.84
2022-08-26T11:08:56.816Z,100314.25
2022-08-26T11:11:46.789Z,100303.78
2022-08-26T11:14:29.309Z,100308.41
2022-08-26T11:16:59.786Z,100296.28
2022-08-26T11:19:59.722Z,100294.19
2022-08-26T11:22:30.139Z,100287.28
2022-08-26T11:24:57.774Z,100283.34
2022-08-26T11:27:38.460Z,100288.66
2022-08-26T11:30:33.994Z,100276.94
2022-08-26T11:33:02.179Z,100277.91
2022-08-26T11:35:50.623Z,100276.56
2022-08-26T11:38:28.546Z,100282.50
2022-08-26T11:41:04.907Z,100273.75
2022-08-26T11:43:33.707Z,100275.50
2022-08-26T11:46:05.643Z,100280.25
2022-08-26T11:48:40.923Z,100278.97
2022-08-26T11:51:10.238Z,100262.34
2022-08-26T11:53:44.681Z,100263.34
2022-08-26T11:56:28.831Z,100255.25
2022-08-26T11:59:04.194Z,100253.59
2022-08-26T12:01:38.200Z,100255.50
2022-08-26T12:04:10.682Z,100252.16
2022-08-26T12:06:51.085Z,100244.66
2022-08-26T12:09:32.110Z,100243.78
2022-08-26T12:12:18.730Z,100247.13
2022-08-26T12:14:46.953Z,100251.84
2022-08-26T12:17:27.186Z,100236.69
2022-08-26T12:19:54.955Z,100229.19
2022-08-26T12:22:28.224Z,100231.69
2022-08-26T12:25:06.089Z,100224.34
2022-08-26T12:27:43.237Z,100213.50
2022-08-26T12:30:14.010Z,100219.81
2022-08-26T12:32:58.071Z,100221.44
2022-08-26T12:35:28.950Z,100220.19
2022-08-26T12:37:57.920Z,100216.44
2022-08-26T12:40:31.924Z,100208.59
2022-08-26T12:43:02.079Z,100209.16
2022-08-26T12:45:29.859Z,100211.25
2022-08-26T12:48:01.463Z,100202.63
2022-08-26T12:50:33.777Z,100200.00
2022-08-26T12:53:05.668Z,100205.88
2022-08-26T12:55:33.604Z,100193.44
2022-08-26T12:58:38.311Z,100188.25
2022-08-26T13:01:09.333Z,100188.53
2022-08-26T13:03:37.709Z,100186.69
2022-08-26T13:06:29.999Z,100186.19
2022-08-26T13:09:22.772Z,100179.81
2022-08-26T13:11:52.997Z,100173.28
2022-08-26T13:14:24.416Z,100176.16
2022-08-26T13:16:53.564Z,100171.75
2022-08-26T13:19:25.750Z,100175.75
2022-08-26T13:21:59.099Z,100171.47
2022-08-26T13:24:32.879Z,100174.97
2022-08-26T13:27:01.938Z,100161.97
2022-08-26T13:29:29.989Z,100166.91
2022-08-26T13:31:59.478Z,100159.38
2022-08-26T13:34:28.295Z,100162.06
2022-08-26T13:36:56.706Z,100160.44
2022-08-26T13:39:25.602Z,100160.88
2022-08-26T13:41:53.909Z,100161.53
2022-08-26T13:44:21.872Z,100155.06
2022-08-26T13:46:49.841Z,100151.72
2022-08-26T13:49:17.887Z,100155.13
2022-08-26T13:51:45.900Z,100154.78
2022-08-26T13:54:13.654Z,100157.78
2022-08-26T13:56:41.792Z,100152.38
2022-08-26T13:59:10.010Z,100147.84
2022-08-26T14:01:39.905Z,100153.66
2022-08-26T14:04:08.721Z,100146.13
2022-08-26T14:06:37.464Z,100136.94
2022-08-26T14:09:05.441Z,100136.50
2022-08-26T14:11:37.016Z,100144.75
2022-08-26T14:14:18.571Z,100140.16
2022-08-26T14:16:59.495Z,100139.25
2022-08-26T14:19:30.183Z,100145.47
2022-08-26T14:22:00.817Z,100141.91
2022-08-26T14:24:29.197Z,100139.13
2022-08-26T14:26:57.025Z,100138.09
2022-08-26T14:29:25.042Z,100140.66
2022-08-26T14:31:54.605Z,100139.56
2022-08-26T14:34:22.378Z,100141.19
2022-08-26T14:36:50.259Z,100131.16
2022-08-26T14:39:18.142Z,100132.63
2022-08-26T14:41:54.093Z,100129.34
2022-08-26T14:44:30.606Z,100134.66
2022-08-26T14:47:02.101Z,100123.34
2022-08-26T14:49:31.593Z,100113.78
2022-08-26T14:51:59.853Z,100119.53
2022-08-26T14:54:29.470Z,100120.50
2022-08-26T14:57:17.932Z,100118.28
2022-08-26T14:59:49.901Z,100128.44
2022-08-26T15:02:22.251Z,100125.28
2022-08-26T15:05:02.543Z,100126.31
2022-08-26T15:07:31.000Z,100118.03
2022-08-26T15:09:59.035Z,100118.31
2022-08-26T15:12:27.808Z,100114.69
2022-08-26T15:14:55.699Z,100119.44
2022-08-26T15:17:23.632Z,100114.44
2022-08-26T15:19:52.069Z,100113.09
2022-08-26T15:22:20.080Z,100108.53
2022-08-26T15:24:47.949Z,100110.97
2022-08-26T15:27:21.466Z,100112.63
2022-08-26T15:29:49.474Z,100115.72
2022-08-26T15:32:17.421Z,100106.94
2022-08-26T15:34:45.783Z,100104.81
2022-08-26T15:37:13.727Z,100113.50
2022-08-26T15:39:41.611Z,100102.13
2022-08-26T15:42:11.104Z,100099.66
2022-08-26T15:44:44.172Z,100105.34
2022-08-26T15:47:12.898Z,100093.09
2022-08-26T15:49:41.113Z,100090.78
2022-08-26T15:52:09.434Z,100088.16
2022-08-26T15:54:37.493Z,100091.63
2022-08-26T15:57:08.175Z,100091.06
2022-08-26T15:59:37.336Z,100090.03
2022-08-26T16:02:05.848Z,100099.91
2022-08-26T16:04:33.635Z,100097.00
2022-08-26T16:07:01.407Z,100101.31
2022-08-26T16:09:30.766Z,100097.13
2022-08-26T16:12:01.920Z,100094.59
2022-08-26T16:14:30.255Z,100091.78
2022-08-26T16:16:58.053Z,100096.47
2022-08-26T16:19:25.832Z,100087.94
2022-08-26T16:21:53.959Z,100096.66
2022-08-26T16:24:24.778Z,100096.22
2022-08-26T16:26:55.701Z,100087.41
2022-08-26T16:29:24.626Z,100094.19
2022-08-26T16:31:54.673Z,100092.22
2022-08-26T16:34:22.984Z,100086.22
2022-08-26T16:36:51.706Z,100081.53
2022-08-26T16:39:19.785Z,100074.84
2022-08-26T16:41:47.685Z,100091.00
2022-08-26T16:44:15.472Z,100080.56
2022-08-26T16:46:43.402Z,100071.88
2022-08-26T16:49:11.372Z,100080.94
2022-08-26T16:51:39.187Z,100081.81
2022-08-26T16:54:08.757Z,100086.69
2022-08-26T16:56:37.888Z,100079.66
2022-08-26T16:59:08.052Z,100091.06
2022-08-26T17:01:35.888Z,100089.72
2022-08-26T17:04:04.122Z,100090.38
2022-08-26T17:06:31.828Z,100087.50
2022-08-26T17:08:59.951Z,100099.06
2022-08-26T17:11:27.733Z,100089.34
2022-08-26T17:13:55.506Z,100096.03
2022-08-26T17:16:26.923Z,100088.41
2022-08-26T17:18:57.371Z,100091.22
2022-08-26T17:21:26.285Z,100092.91
2022-08-26T17:23:54.520Z,100088.50
2022-08-26T17:26:22.321Z,100097.47
2022-08-26T17:28:51.129Z,100091.56
2022-08-26T17:31:20.418Z,100096.13
2022-08-26T17:33:53.810Z,100095.28
2022-08-26T17:36:27.885Z,100086.53
2022-08-26T17:38:57.644Z,100089.28
2022-08-26T17:41:26.478Z,100089.41
2022-08-26T17:43:54.645Z,100098.59
2022-08-26T17:46:23.020Z,100091.34
2022-08-26T17:48:50.966Z,100103.16
2022-08-26T17:51:19.787Z,100104.75
2022-08-26T17:53:48.787Z,100095.81
2022-08-26T17:56:19.448Z,100106.81
2022-08-26T17:58:48.152Z,100096.41
2022-08-26T18:01:21.301Z,100108.25
2022-08-26T18:03:49.506Z,100103.63
2022-08-26T18:06:17.250Z,100102.13
2022-08-26T18:08:45.356Z,100106.34
2022-08-26T18:11:18.077Z,100104.34
2022-08-26T18:13:47.649Z,100105.47
2022-08-26T18:16:17.683Z,100105.88
2022-08-26T18:18:46.732Z,100112.59
2022-08-26T18:21:17.876Z,100111.31
2022-08-26T18:23:46.996Z,100109.91
2022-08-26T18:26:31.468Z,100116.63
2022-08-26T18:29:00.030Z,100116.53
2022-08-26T18:31:28.420Z,100106.22
2022-08-26T18:33:56.520Z,100111.16
2022-08-26T18:36:27.740Z,100115.78
2022-08-26T18:38:57.110Z,100111.06
2022-08-26T18:41:27.733Z,100112.44
2022-08-26T18:43:56.510Z,100117.50
2022-08-26T18:46:26.944Z,100115.75
2022-08-26T18:48:56.447Z,100116.72
2022-08-26T18:51:28.139Z,100111.41
2022-08-26T18:53:56.890Z,100117.94
2022-08-26T18:56:24.967Z,100116.91
2022-08-26T18:58:52.752Z,100117.22
2022-08-26T19:01:25.502Z,100115.34
2022-08-26T19:03:56.334Z,100114.75
2022-08-26T19:06:25.778Z,100123.38
2022-08-26T19:08:53.809Z,100119.06
2022-08-26T19:11:32.637Z,100124.88
2022-08-26T19:14:13.644Z,100116.19
2022-08-26T19:16:44.560Z,100110.66
2022-08-26T19:19:13.452Z,100116.00
2022-08-26T19:21:41.577Z,100120.72
2022-08-26T19:24:15.377Z,100123.50
2022-08-26T19:26:44.208Z,100130.28
2022-08-26T19:29:12.531Z,100117.34
2022-08-26T19:31:41.416Z,100126.41
2022-08-26T19:34:12.554Z,100123.75
2022-08-26T19:36:41.047Z,100122.81
2022-08-26T19:39:13.048Z,100120.66
2022-08-26T19:41:40.845Z,100122.22
2022-08-26T19:44:13.044Z,100117.03
2022-08-26T19:46:41.658Z,100118.84
2022-08-26T19:49:09.502Z,100120.16
2022-08-26T19:51:37.408Z,100121.84
2022-08-26T19:54:05.794Z,100122.22
2022-08-26T19:56:34.407Z,100127.66
2022-08-26T19:59:02.088Z,100120.28
2022-08-26T20:01:30.743Z,100125.22
2022-08-26T20:03:58.544Z,100129.31
2022-08-26T20:06:26.280Z,100129.81
2022-08-26T20:08:56.257Z,100119.41
2022-08-26T20:11:24.471Z,100135.69
2022-08-26T20:13:52.264Z,100132.06
2022-08-26T20:16:20.247Z,100129.97
2022-08-26T20:19:06.781Z,100137.38
2022-08-26T20:21:38.234Z,100129.75
2022-08-26T20:24:13.275Z,100135.91
2022-08-26T20:26:44.534Z,100137.22
2022-08-26T20:29:18.739Z,100136.56
2022-08-26T20:31:48.347Z,100139.69
2022-08-26T20:34:18.636Z,100143.03
2022-08-26T20:36:48.133Z,100133.84
2022-08-26T20:39:18.325Z,100138.53
2022-08-26T20:41:46.349Z,100136.97
2022-08-26T20:44:14.244Z,100148.41
2022-08-26T20:46:42.267Z,100145.72
2022-08-26T20:49:10.402Z,100140.00
2022-08-26T20:51:38.584Z,100145.78
2022-08-26T20:54:07.674Z,100141.13
2022-08-26T20:56:36.319Z,100141.59
2022-08-26T20:59:06.119Z,100146.69
2022-08-26T21:01:36.015Z,100148.81
2022-08-26T21:04:06.800Z,100145.44
2022-08-26T21:06:35.364Z,100147.75
2022-08-26T21:09:05.400Z,100149.56
2022-08-26T21:11:34.045Z,100141.59
2022-08-26T21:14:06.654Z,100143.16
2022-08-26T21:16:44.747Z,100144.25
2022-08-26T21:19:15.493Z,100139.44
2022-08-26T21:21:44.561Z,100146.44
2022-08-26T21:24:13.140Z,100150.91
2022-08-26T21:26:41.271Z,100153.69
2022-08-26T21:29:10.024Z,100146.44
2022-08-26T21:31:44.909Z,100143.47
2022-08-26T21:34:16.903Z,100140.69
2022-08-26T21:36:48.180Z,100146.84
2022-08-26T21:39:16.640Z,100148.94
2022-08-26T21:41:45.479Z,100152.16
2022-08-26T21:44:14.524Z,100146.19
2022-08-26T21:46:43.904Z,100144.06
2022-08-26T21:49:13.838Z,100147.56
2022-08-26T21:51:44.964Z,100138.78
2022-08-26T21:54:13.878Z,100141.75
2022-08-26T21:56:47.085Z,100139.66
2022-08-26T21:59:19.290Z,100145.19
2022-08-26T22:01:48.208Z,100136.09
2022-08-26T22:04:17.179Z,100144.41
2022-08-26T22:06:50.794Z,100136.78
2022-08-26T22:09:24.145Z,100139.75
2022-08-26T22:11:53.125Z,100133.16
2022-08-26T22:14:22.429Z,100133.38
2022-08-26T22:16:51.062Z,100140.38
2022-08-26T22:19:20.600Z,100139.97
2022-08-26T22:21:53.531Z,100138.50
2022-08-26T22:24:23.847Z,100138.28
2022-08-26T22:26:52.710Z,100143.06
2022-08-26T22:29:20.720Z,100140.44
2022-08-26T22:31:48.643Z,100144.50
2022-08-26T22:34:17.524Z,100141.34
2022-08-26T22:36:48.663Z,100138.56
2022-08-26T22:39:20.131Z,100133.59
2022-08-26T22:41:48.864Z,100139.84
2022-08-26T22:44:18.188Z,100146.56
2022-08-26T22:46:47.618Z,100145.59
2022-08-26T22:49:16.544Z,100142.22
2022-08-26T22:51:45.984Z,100141.34
2022-08-26T22:54:15.428Z,100132.78
2022-08-26T22:56:44.952Z,100134.34
2022-08-26T22:59:13.057Z,100138.81
2022-08-26T23:01:43.027Z,100135.63
2022-08-26T23:04:11.669Z,100130.66
2022-08-26T23:06:43.304Z,100125.97
2022-08-26T23:09:18.542Z,100123.31
2022-08-26T23:11:47.871Z,100129.03
2022-08-26T23:14:17.201Z,100114.38
2022-08-26T23:16:45.937Z,100120.97
2022-08-26T23:19:15.512Z,100118.66
2022-08-26T23:21:43.854Z,100118.66
2022-08-26T23:24:12.188Z,100122.09
2022-08-26T23:26:41.203Z,100118.41
2022-08-26T23:29:11.281Z,100122.03
2022-08-26T23:31:41.684Z,100116.44
2022-08-26T23:34:29.421Z,100111.44
2022-08-26T23:36:59.299Z,100118.03
2022-08-26T23:39:29.307Z,100122.06
2022-08-26T23:41:58.062Z,100115.28
2022-08-26T23:44:26.640Z,100113.47
2022-08-26T23:46:55.146Z,100109.97
2022-08-26T23:49:23.374Z,100111.66
2022-08-26T23:52:10.420Z,100113.06
2022-08-26T23:54:39.832Z,100111.03
2022-08-26T23:57:09.399Z,100101.09
2022-08-26T23:59:38.442Z,100097.91
